createdAt,value
2023-05-24T00:00:35.565Z,4.40
2023-05-24T00:01:35.567Z,3.79
2023-05-24T00:02:35.613Z,4.27
2023-05-24T00:04:54.733Z,4.17
2023-05-24T00:05:54.646Z,4.88
2023-05-24T00:06:54.656Z,4.15
2023-05-24T00:07:54.681Z,4.31
2023-05-24T00:08:54.645Z,4.34
2023-05-24T00:09:54.650Z,4.26
2023-05-24T00:10:54.626Z,4.58
2023-05-24T00:11:54.595Z,4.52
2023-05-24T00:12:54.636Z,4.45
2023-05-24T00:13:54.619Z,5.02
2023-05-24T00:14:54.692Z,4.05
2023-05-24T00:15:54.579Z,5.16
2023-05-24T00:16:54.689Z,4.75
2023-05-24T00:17:54.597Z,5.29
2023-05-24T00:18:54.572Z,5.05
2023-05-24T00:19:54.579Z,4.93
2023-05-24T00:20:54.640Z,4.84
2023-05-24T00:21:54.582Z,4.48
2023-05-24T00:22:54.559Z,4.70
2023-05-24T00:23:54.531Z,4.35
2023-05-24T00:24:54.544Z,5.11
2023-05-24T00:25:54.514Z,4.67
2023-05-24T00:26:54.534Z,5.03
2023-05-24T00:27:54.499Z,4.95
2023-05-24T00:28:54.499Z,5.29
2023-05-24T00:29:54.504Z,5.49
2023-05-24T00:30:54.505Z,5.33
2023-05-24T00:31:54.523Z,5.33
2023-05-24T00:32:54.491Z,5.60
2023-05-24T00:33:54.481Z,5.47
2023-05-24T00:34:54.474Z,5.22
2023-05-24T00:35:54.435Z,4.91
2023-05-24T00:36:54.440Z,5.34
2023-05-24T00:37:54.453Z,4.73
2023-05-24T00:38:54.436Z,4.85
2023-05-24T00:39:54.450Z,5.80
2023-05-24T00:40:54.432Z,5.64
2023-05-24T00:41:54.385Z,5.83
2023-05-24T00:42:54.391Z,5.64
2023-05-24T00:43:54.423Z,5.40
2023-05-24T00:44:54.389Z,6.12
2023-05-24T00:45:54.429Z,5.83
2023-05-24T00:46:54.357Z,6.24
2023-05-24T00:47:54.424Z,5.91
2023-05-24T00:48:54.358Z,5.67
2023-05-24T00:49:54.343Z,5.79
2023-05-24T00:50:54.368Z,5.87
2023-05-24T00:51:54.371Z,5.75
2023-05-24T00:52:54.361Z,5.82
2023-05-24T00:53:54.344Z,6.03
2023-05-24T00:54:54.340Z,6.57
2023-05-24T00:55:54.347Z,6.17
2023-05-24T00:56:54.332Z,5.54
2023-05-24T00:57:54.292Z,6.50
2023-05-24T00:58:54.290Z,6.73
2023-05-24T00:59:54.276Z,6.35
2023-05-24T01:00:54.303Z,6.18
2023-05-24T01:01:54.332Z,6.08
2023-05-24T01:02:54.340Z,6.01
2023-05-24T01:03:54.542Z,6.22
2023-05-24T01:04:54.261Z,6.26
2023-05-24T01:05:54.265Z,5.92
2023-05-24T01:06:54.249Z,6.49
2023-05-24T01:07:54.268Z,5.96
2023-05-24T01:08:54.232Z,6.75
2023-05-24T01:09:54.248Z,6.67
2023-05-24T01:10:54.203Z,6.91
2023-05-24T01:11:54.219Z,6.08
2023-05-24T01:12:54.196Z,6.19
2023-05-24T01:13:54.218Z,6.49
2023-05-24T01:14:54.198Z,6.80
2023-05-24T01:15:54.186Z,6.08
2023-05-24T01:16:54.157Z,6.41
2023-05-24T01:17:54.242Z,6.06
2023-05-24T01:18:54.132Z,6.50
2023-05-24T01:19:54.216Z,7.09
2023-05-24T01:20:54.164Z,6.47
2023-05-24T01:21:54.117Z,6.85
2023-05-24T01:22:54.135Z,6.60
2023-05-24T01:23:54.126Z,6.88
2023-05-24T01:24:54.127Z,6.67
2023-05-24T01:25:54.108Z,6.25
2023-05-24T01:26:54.127Z,6.65
2023-05-24T01:27:54.077Z,6.57
2023-05-24T01:28:54.107Z,6.44
2023-05-24T01:29:54.085Z,6.42
2023-05-24T01:30:54.096Z,6.53
2023-05-24T01:31:54.136Z,6.94
2023-05-24T01:32:54.113Z,6.66
2023-05-24T01:33:54.044Z,6.41
2023-05-24T01:34:54.031Z,7.35
2023-05-24T01:35:54.045Z,6.68
2023-05-24T01:36:54.055Z,6.46
2023-05-24T01:37:54.042Z,6.41
2023-05-24T01:38:54.018Z,7.14
2023-05-24T01:39:54.024Z,6.83
2023-05-24T01:40:54.011Z,6.79
2023-05-24T01:41:54.002Z,6.70
2023-05-24T01:42:53.971Z,6.25
2023-05-24T01:43:53.983Z,6.69
2023-05-24T01:44:53.987Z,6.11
2023-05-24T01:45:53.984Z,6.92
2023-05-24T01:46:53.994Z,6.46
2023-05-24T01:47:54.006Z,6.99
2023-05-24T01:48:53.986Z,6.74
2023-05-24T01:49:53.988Z,7.05
2023-05-24T01:50:54.002Z,6.54
2023-05-24T01:51:54.105Z,6.33
2023-05-24T01:52:54.072Z,7.26
2023-05-24T01:53:54.091Z,6.55
2023-05-24T01:54:54.140Z,6.70
2023-05-24T01:55:54.195Z,6.41
2023-05-24T01:56:54.224Z,6.51
2023-05-24T01:57:54.290Z,6.72
2023-05-24T01:58:54.340Z,6.44
2023-05-24T01:59:54.356Z,6.37
2023-05-24T02:00:54.475Z,6.06
2023-05-24T02:01:54.478Z,6.11
2023-05-24T02:02:54.630Z,6.85
2023-05-24T02:03:54.504Z,6.12
2023-05-24T02:04:54.540Z,6.14
2023-05-24T02:05:54.593Z,5.98
2023-05-24T02:06:54.638Z,7.08
2023-05-24T02:07:54.655Z,6.36
2023-05-24T02:08:54.720Z,6.49
2023-05-24T02:09:54.746Z,5.93
2023-05-24T02:10:54.784Z,6.01
2023-05-24T02:11:54.831Z,5.59
2023-05-24T02:12:54.880Z,5.83
2023-05-24T02:13:54.926Z,6.25
2023-05-24T02:14:54.957Z,6.40
2023-05-24T02:15:54.975Z,5.93
2023-05-24T02:16:55.085Z,6.38
2023-05-24T02:17:55.091Z,6.62
2023-05-24T02:18:55.061Z,6.66
2023-05-24T02:19:55.204Z,5.86
2023-05-24T02:20:55.175Z,6.42
2023-05-24T02:21:55.212Z,6.20
2023-05-24T02:22:55.247Z,6.40
2023-05-24T02:23:55.319Z,7.07
2023-05-24T02:24:55.358Z,5.79
2023-05-24T02:25:55.411Z,5.67
2023-05-24T02:26:55.409Z,5.79
2023-05-24T02:27:55.483Z,6.50
2023-05-24T02:28:55.519Z,6.22
2023-05-24T02:29:55.540Z,6.53
2023-05-24T02:30:55.625Z,6.73
2023-05-24T02:31:55.665Z,6.32
2023-05-24T02:32:55.719Z,5.99
2023-05-24T02:33:55.747Z,6.85
2023-05-24T02:34:55.809Z,6.70
2023-05-24T02:35:55.814Z,6.13
2023-05-24T02:36:55.851Z,6.11
2023-05-24T02:37:55.857Z,6.57
2023-05-24T02:38:55.918Z,6.24
2023-05-24T02:39:55.922Z,6.47
2023-05-24T02:40:55.988Z,5.73
2023-05-24T02:41:56.055Z,5.88
2023-05-24T02:42:56.112Z,5.97
2023-05-24T02:43:56.172Z,6.45
2023-05-24T02:44:56.191Z,6.47
2023-05-24T02:45:56.270Z,6.41
2023-05-24T02:46:56.331Z,6.62
2023-05-24T02:47:56.406Z,6.10
2023-05-24T02:48:56.435Z,6.01
2023-05-24T02:49:56.480Z,6.24
2023-05-24T02:50:56.520Z,5.83
2023-05-24T02:51:56.554Z,6.50
2023-05-24T02:52:56.621Z,6.13
2023-05-24T02:53:56.684Z,6.69
2023-05-24T02:54:56.735Z,6.25
2023-05-24T02:55:56.756Z,5.63
2023-05-24T02:56:56.809Z,6.42
2023-05-24T02:57:56.878Z,6.19
2023-05-24T02:58:56.911Z,6.26
2023-05-24T02:59:56.966Z,6.20
2023-05-24T03:00:57.014Z,6.60
2023-05-24T03:01:57.172Z,6.92
2023-05-24T03:02:57.205Z,6.58
2023-05-24T03:03:57.193Z,6.28
2023-05-24T03:04:57.234Z,6.26
2023-05-24T03:05:57.295Z,6.51
2023-05-24T03:06:57.311Z,6.19
2023-05-24T03:07:57.375Z,5.60
2023-05-24T03:08:57.388Z,6.18
2023-05-24T03:09:57.443Z,6.45
2023-05-24T03:10:57.493Z,6.99
2023-05-24T03:11:57.534Z,6.75
2023-05-24T03:12:57.637Z,6.63
2023-05-24T03:13:57.652Z,6.04
2023-05-24T03:14:57.755Z,6.59
2023-05-24T03:15:57.816Z,6.19
2023-05-24T03:16:57.831Z,5.87
2023-05-24T03:17:57.940Z,6.24
2023-05-24T03:18:57.920Z,6.16
2023-05-24T03:19:58.050Z,6.69
2023-05-24T03:20:58.062Z,6.56
2023-05-24T03:21:58.140Z,5.91
2023-05-24T03:22:58.193Z,5.51
2023-05-24T03:23:58.250Z,6.44
2023-05-24T03:24:58.330Z,6.75
2023-05-24T03:25:58.403Z,6.71
2023-05-24T03:26:58.442Z,6.08
2023-05-24T03:27:58.487Z,6.23
2023-05-24T03:28:58.555Z,6.68
2023-05-24T03:29:58.608Z,6.38
2023-05-24T03:30:58.708Z,6.00
2023-05-24T03:31:58.804Z,6.51
2023-05-24T03:32:58.841Z,6.76
2023-05-24T03:33:58.860Z,6.99
2023-05-24T03:34:58.938Z,6.19
2023-05-24T03:35:58.981Z,5.98
2023-05-24T03:36:59.074Z,6.42
2023-05-24T03:37:59.122Z,6.81
2023-05-24T03:38:59.172Z,6.18
2023-05-24T03:39:59.213Z,6.61
2023-05-24T03:40:59.293Z,6.80
2023-05-24T03:41:59.371Z,5.90
2023-05-24T03:42:59.537Z,6.07
2023-05-24T03:43:59.503Z,5.91
2023-05-24T03:44:59.526Z,6.75
2023-05-24T03:45:59.612Z,6.06
2023-05-24T03:46:59.682Z,6.00
2023-05-24T03:47:59.762Z,6.98
2023-05-24T03:48:59.785Z,5.81
2023-05-24T03:49:59.845Z,5.67
2023-05-24T03:50:59.907Z,6.12
2023-05-24T03:51:59.961Z,5.83
2023-05-24T03:53:00.020Z,6.55
2023-05-24T03:54:00.123Z,6.15
2023-05-24T03:55:00.137Z,6.47
2023-05-24T03:56:00.163Z,6.00
2023-05-24T03:57:00.253Z,6.22
2023-05-24T03:58:00.305Z,5.86
2023-05-24T03:59:00.351Z,6.12
2023-05-24T04:00:00.439Z,6.01
2023-05-24T04:01:00.496Z,6.67
2023-05-24T04:02:00.599Z,6.44
2023-05-24T04:03:00.680Z,6.66
2023-05-24T04:04:00.724Z,7.39
2023-05-24T04:05:00.724Z,6.24
2023-05-24T04:06:00.770Z,6.29
2023-05-24T04:07:00.826Z,6.10
2023-05-24T04:08:00.902Z,6.28
2023-05-24T04:09:01.616Z,6.48
2023-05-24T04:10:01.013Z,7.32
2023-05-24T04:11:01.091Z,6.76
2023-05-24T04:12:01.145Z,5.82
2023-05-24T04:13:01.213Z,6.03
2023-05-24T04:14:01.285Z,7.21
2023-05-24T04:15:01.344Z,6.09
2023-05-24T04:16:01.378Z,7.02
2023-05-24T04:17:01.531Z,6.58
2023-05-24T04:18:01.589Z,6.80
2023-05-24T04:19:01.621Z,6.57
2023-05-24T04:20:01.668Z,6.80
2023-05-24T04:21:01.682Z,7.02
2023-05-24T04:22:01.722Z,6.97
2023-05-24T04:23:01.778Z,7.23
2023-05-24T04:24:01.858Z,7.11
2023-05-24T04:25:01.938Z,6.87
2023-05-24T04:26:01.990Z,6.87
2023-05-24T04:27:02.037Z,6.63
2023-05-24T04:28:02.054Z,6.36
2023-05-24T04:29:02.147Z,6.92
2023-05-24T04:30:02.160Z,5.73
2023-05-24T04:31:02.207Z,6.32
2023-05-24T04:32:02.264Z,6.64
2023-05-24T04:33:02.349Z,6.90
2023-05-24T04:34:02.372Z,6.57
2023-05-24T04:35:02.413Z,6.62
2023-05-24T04:36:02.447Z,6.88
2023-05-24T04:37:02.486Z,6.42
2023-05-24T04:38:02.547Z,6.46
2023-05-24T04:39:02.590Z,7.06
2023-05-24T04:40:02.647Z,7.40
2023-05-24T04:41:02.666Z,6.61
2023-05-24T04:42:02.745Z,6.19
2023-05-24T04:43:02.792Z,6.72
2023-05-24T04:44:02.824Z,6.97
2023-05-24T04:45:02.865Z,7.73
2023-05-24T04:46:02.938Z,7.26
2023-05-24T04:47:03.034Z,7.41
2023-05-24T04:48:03.056Z,7.54
2023-05-24T04:49:03.104Z,6.76
2023-05-24T04:50:03.149Z,6.81
2023-05-24T04:51:03.230Z,7.68
2023-05-24T04:52:03.253Z,6.97
2023-05-24T04:53:03.320Z,7.13
2023-05-24T04:54:03.343Z,7.20
2023-05-24T04:55:03.397Z,7.10
2023-05-24T04:56:03.471Z,7.29
2023-05-24T04:57:03.522Z,7.04
2023-05-24T04:58:03.574Z,7.45
2023-05-24T04:59:03.635Z,7.45
2023-05-24T05:00:03.684Z,7.78
2023-05-24T05:01:03.785Z,7.11
2023-05-24T05:02:03.884Z,7.68
2023-05-24T05:03:04.056Z,7.63
2023-05-24T05:04:03.992Z,7.68
2023-05-24T05:05:03.976Z,7.15
2023-05-24T05:06:04.074Z,8.73
2023-05-24T05:07:04.130Z,7.23
2023-05-24T05:08:04.225Z,6.95
2023-05-24T05:09:04.209Z,8.03
2023-05-24T05:10:04.286Z,8.30
2023-05-24T05:11:04.309Z,8.96
2023-05-24T05:12:04.345Z,8.01
2023-05-24T05:13:04.389Z,8.27
2023-05-24T05:14:04.412Z,7.80
2023-05-24T05:15:04.471Z,7.14
2023-05-24T05:16:04.564Z,8.40
2023-05-24T05:17:04.558Z,7.71
2023-05-24T05:18:04.651Z,7.94
2023-05-24T05:19:04.765Z,7.82
2023-05-24T05:20:04.734Z,7.42
2023-05-24T05:21:04.811Z,7.46
2023-05-24T05:22:04.875Z,7.81
2023-05-24T05:23:04.913Z,8.29
2023-05-24T05:24:04.991Z,7.69
2023-05-24T05:25:05.048Z,7.19
2023-05-24T05:26:05.077Z,7.37
2023-05-24T05:27:05.135Z,7.77
2023-05-24T05:28:05.246Z,7.91
2023-05-24T05:29:05.315Z,7.77
2023-05-24T05:30:05.329Z,7.62
2023-05-24T05:31:05.366Z,7.18
2023-05-24T05:32:05.472Z,7.65
2023-05-24T05:33:05.552Z,7.76
2023-05-24T05:34:05.557Z,8.16
2023-05-24T05:35:05.643Z,8.27
2023-05-24T05:36:05.652Z,8.85
2023-05-24T05:37:05.714Z,8.71
2023-05-24T05:38:05.790Z,7.00
2023-05-24T05:39:05.924Z,7.00
2023-05-24T05:40:05.862Z,7.52
2023-05-24T05:41:05.903Z,6.21
2023-05-24T05:42:05.949Z,7.46
2023-05-24T05:43:05.979Z,6.52
2023-05-24T05:44:06.036Z,7.86
2023-05-24T05:45:06.024Z,6.69
2023-05-24T05:46:06.141Z,6.42
2023-05-24T05:47:06.076Z,7.87
2023-05-24T05:48:06.083Z,5.98
2023-05-24T05:49:06.085Z,6.88
2023-05-24T05:50:06.062Z,7.18
2023-05-24T05:51:06.092Z,7.65
2023-05-24T05:52:06.123Z,6.80
2023-05-24T05:53:06.118Z,6.97
2023-05-24T05:54:06.171Z,7.01
2023-05-24T05:55:06.238Z,6.51
2023-05-24T05:56:06.261Z,6.33
2023-05-24T05:57:06.258Z,6.42
2023-05-24T05:58:06.360Z,6.51
2023-05-24T05:59:06.374Z,6.21
2023-05-24T06:00:06.434Z,6.07
2023-05-24T06:01:06.534Z,5.66
2023-05-24T06:02:06.546Z,6.29
2023-05-24T06:03:06.672Z,6.77
2023-05-24T06:04:06.676Z,5.81
2023-05-24T06:05:06.662Z,6.26
2023-05-24T06:06:06.679Z,6.60
2023-05-24T06:07:06.693Z,5.84
2023-05-24T06:08:06.770Z,6.18
2023-05-24T06:09:06.755Z,5.98
2023-05-24T06:10:06.809Z,5.75
2023-05-24T06:11:06.775Z,5.68
2023-05-24T06:12:06.764Z,6.28
2023-05-24T06:13:06.817Z,6.00
2023-05-24T06:14:06.844Z,6.07
2023-05-24T06:15:06.840Z,6.08
2023-05-24T06:16:06.905Z,5.86
2023-05-24T06:17:06.840Z,5.24
2023-05-24T06:18:06.851Z,5.02
2023-05-24T06:19:06.878Z,6.14
2023-05-24T06:20:06.945Z,5.21
2023-05-24T06:21:07.066Z,6.52
2023-05-24T06:22:07.036Z,6.11
2023-05-24T06:23:07.117Z,5.68
2023-05-24T06:24:07.253Z,5.49
2023-05-24T06:25:07.222Z,6.32
2023-05-24T06:26:07.349Z,5.88
2023-05-24T06:27:07.358Z,5.84
2023-05-24T06:28:07.449Z,6.03
2023-05-24T06:29:07.411Z,6.07
2023-05-24T06:30:07.507Z,5.21
2023-05-24T06:31:07.550Z,5.86
2023-05-24T06:32:07.531Z,5.77
2023-05-24T06:33:07.613Z,5.74
2023-05-24T06:34:07.594Z,5.48
2023-05-24T06:35:07.678Z,5.78
2023-05-24T06:36:07.831Z,6.20
2023-05-24T06:37:07.763Z,5.52
2023-05-24T06:38:07.719Z,5.60
2023-05-24T06:39:07.743Z,5.73
2023-05-24T06:40:07.797Z,6.53
2023-05-24T06:41:07.818Z,5.17
2023-05-24T06:42:07.814Z,6.65
2023-05-24T06:43:07.822Z,5.44
2023-05-24T06:44:07.853Z,5.44
2023-05-24T06:45:07.837Z,5.82
2023-05-24T06:46:07.835Z,5.73
2023-05-24T06:47:07.862Z,6.11
2023-05-24T06:48:07.909Z,5.32
2023-05-24T06:49:07.872Z,6.17
2023-05-24T06:50:07.834Z,5.25
2023-05-24T06:51:07.863Z,5.52
2023-05-24T06:52:07.847Z,5.63
2023-05-24T06:53:07.852Z,6.46
2023-05-24T06:54:07.855Z,6.30
2023-05-24T06:55:07.850Z,6.05
2023-05-24T06:56:07.854Z,6.06
2023-05-24T06:57:07.874Z,6.15
2023-05-24T06:58:07.869Z,5.98
2023-05-24T06:59:07.860Z,6.10
2023-05-24T07:00:07.861Z,5.27
2023-05-24T07:01:07.894Z,5.62
2023-05-24T07:02:07.869Z,5.79
2023-05-24T07:03:07.969Z,5.82
2023-05-24T07:04:07.931Z,5.76
2023-05-24T07:05:07.858Z,5.80
2023-05-24T07:06:07.893Z,5.38
2023-05-24T07:07:07.872Z,5.40
2023-05-24T07:08:07.858Z,5.86
2023-05-24T07:09:07.876Z,5.42
2023-05-24T07:10:07.839Z,5.59
2023-05-24T07:11:07.958Z,5.19
2023-05-24T07:12:09.102Z,6.24
2023-05-24T07:13:07.894Z,4.79
2023-05-24T07:14:07.940Z,5.11
2023-05-24T07:15:07.951Z,6.13
2023-05-24T07:16:07.996Z,5.57
2023-05-24T07:17:08.128Z,5.93
2023-05-24T07:18:08.090Z,5.26
2023-05-24T07:19:08.044Z,5.31
2023-05-24T07:20:08.150Z,4.78
2023-05-24T07:21:08.122Z,4.62
2023-05-24T07:22:08.114Z,5.31
2023-05-24T07:23:08.157Z,5.27
2023-05-24T07:24:08.178Z,4.29
2023-05-24T07:25:08.179Z,4.93
2023-05-24T07:26:08.199Z,5.15
2023-05-24T07:27:08.198Z,5.05
2023-05-24T07:28:08.209Z,4.83
2023-05-24T07:29:08.238Z,4.11
2023-05-24T07:30:16.467Z,4.86
2023-05-24T07:31:09.215Z,4.11
2023-05-24T07:32:08.256Z,4.40
2023-05-24T07:33:08.259Z,4.39
2023-05-24T07:34:08.209Z,4.70
2023-05-24T07:35:08.178Z,4.32
2023-05-24T07:36:08.170Z,4.45
2023-05-24T07:37:08.170Z,4.61
2023-05-24T07:38:08.169Z,4.56
2023-05-24T07:39:08.189Z,4.13
2023-05-24T07:40:08.148Z,4.39
2023-05-24T07:41:08.172Z,4.34
2023-05-24T07:42:08.140Z,3.85
2023-05-24T07:43:08.325Z,4.57
2023-05-24T07:44:08.129Z,4.43
2023-05-24T07:45:08.157Z,4.62
2023-05-24T07:46:08.238Z,4.24
2023-05-24T07:47:08.214Z,3.82
2023-05-24T07:48:08.309Z,4.05
2023-05-24T07:49:08.299Z,4.88
2023-05-24T07:50:08.403Z,4.51
2023-05-24T07:51:08.422Z,4.19
2023-05-24T07:52:08.491Z,4.30
2023-05-24T07:53:08.476Z,4.23
2023-05-24T07:54:08.489Z,4.43
2023-05-24T07:55:08.473Z,4.67
2023-05-24T07:56:08.535Z,4.52
2023-05-24T07:57:09.563Z,4.11
2023-05-24T07:58:08.536Z,4.24
2023-05-24T07:59:08.910Z,4.00
2023-05-24T08:00:08.566Z,3.77
2023-05-24T08:01:08.598Z,4.13
2023-05-24T08:02:08.623Z,3.69
2023-05-24T08:03:08.705Z,3.68
2023-05-24T08:04:08.731Z,4.17
2023-05-24T08:05:08.681Z,4.34
2023-05-24T08:06:08.670Z,4.25
2023-05-24T08:07:10.856Z,4.21
2023-05-24T08:08:08.760Z,3.87
2023-05-24T08:09:08.802Z,3.85
2023-05-24T08:10:08.859Z,4.15
2023-05-24T08:11:08.915Z,4.68
2023-05-24T08:12:08.972Z,4.08
2023-05-24T08:13:09.039Z,3.55
2023-05-24T08:14:09.034Z,3.67
2023-05-24T08:15:09.108Z,4.11
2023-05-24T08:16:09.157Z,3.69
2023-05-24T08:17:09.210Z,3.58
2023-05-24T08:18:09.317Z,4.11
2023-05-24T08:19:09.342Z,4.18
2023-05-24T08:20:09.423Z,4.13
2023-05-24T08:21:09.428Z,3.56
2023-05-24T08:22:09.478Z,3.97
2023-05-24T08:23:09.507Z,4.76
2023-05-24T08:24:09.817Z,3.98
2023-05-24T08:25:09.639Z,4.19
2023-05-24T08:26:09.706Z,4.61
2023-05-24T08:27:09.748Z,4.68
2023-05-24T08:28:09.757Z,4.08
2023-05-24T08:29:09.716Z,4.58
2023-05-24T08:30:09.763Z,3.96
2023-05-24T08:31:09.762Z,4.33
2023-05-24T08:32:09.889Z,4.66
2023-05-24T08:33:09.764Z,5.29
2023-05-24T08:34:09.784Z,4.78
2023-05-24T08:35:19.242Z,5.75
2023-05-24T08:36:10.721Z,4.69
2023-05-24T08:37:09.784Z,3.66
2023-05-24T08:38:09.749Z,4.08
2023-05-24T08:39:09.736Z,4.20
2023-05-24T08:40:09.737Z,3.80
2023-05-24T08:41:09.719Z,3.87
2023-05-24T08:42:10.624Z,2.93
2023-05-24T08:43:09.704Z,3.84
2023-05-24T08:44:09.719Z,3.80
2023-05-24T08:45:09.753Z,3.29
2023-05-24T08:46:09.756Z,3.64
2023-05-24T08:47:09.854Z,3.69
2023-05-24T08:48:10.003Z,3.91
2023-05-24T08:49:09.899Z,3.66
2023-05-24T08:50:09.804Z,4.26
2023-05-24T08:51:09.815Z,3.43
2023-05-24T08:52:09.798Z,3.65
2023-05-24T08:53:09.842Z,3.03
2023-05-24T08:54:09.910Z,3.60
2023-05-24T08:55:09.804Z,4.68
2023-05-24T08:56:09.831Z,4.33
2023-05-24T08:57:09.856Z,4.05
2023-05-24T08:58:09.859Z,3.94
2023-05-24T08:59:09.865Z,4.12
2023-05-24T09:00:09.852Z,4.05
2023-05-24T09:01:09.938Z,4.14
2023-05-24T09:02:09.972Z,4.39
2023-05-24T09:03:10.130Z,4.61
2023-05-24T09:04:09.998Z,4.23
2023-05-24T09:05:10.005Z,3.95
2023-05-24T09:06:10.069Z,5.25
2023-05-24T09:07:10.098Z,5.26
2023-05-24T09:08:10.165Z,4.96
2023-05-24T09:09:10.185Z,5.11
2023-05-24T09:10:10.248Z,4.42
2023-05-24T09:11:10.275Z,4.55
2023-05-24T09:12:11.091Z,4.54
2023-05-24T09:13:10.581Z,4.77
2023-05-24T09:14:10.601Z,4.40
2023-05-24T09:15:10.638Z,4.52
2023-05-24T09:16:10.756Z,4.57
2023-05-24T09:17:10.752Z,4.77
2023-05-24T09:18:10.882Z,4.61
2023-05-24T09:19:10.923Z,4.02
2023-05-24T09:20:11.350Z,3.80
2023-05-24T09:21:10.936Z,3.64
2023-05-24T09:22:10.936Z,3.25
2023-05-24T09:23:10.980Z,3.25
2023-05-24T09:24:11.009Z,3.37
2023-05-24T09:25:11.067Z,4.09
2023-05-24T09:26:11.027Z,3.73
2023-05-24T09:27:11.029Z,3.10
2023-05-24T09:28:11.068Z,3.25
2023-05-24T09:29:11.046Z,3.31
2023-05-24T09:30:11.177Z,3.23
2023-05-24T09:31:11.089Z,3.48
2023-05-24T09:32:11.041Z,3.16
2023-05-24T09:33:11.103Z,3.24
2023-05-24T09:34:11.090Z,3.44
2023-05-24T09:35:11.164Z,3.55
2023-05-24T09:36:11.247Z,3.23
2023-05-24T09:37:11.275Z,3.45
2023-05-24T09:38:11.327Z,3.12
2023-05-24T09:39:11.391Z,2.91
2023-05-24T09:40:11.490Z,3.22
2023-05-24T09:41:11.559Z,3.48
2023-05-24T09:42:11.614Z,3.62
2023-05-24T09:43:11.675Z,3.45
2023-05-24T09:44:11.728Z,3.38
2023-05-24T09:45:11.769Z,3.36
2023-05-24T09:46:11.850Z,3.40
2023-05-24T09:47:12.006Z,3.30
2023-05-24T09:48:12.015Z,3.46
2023-05-24T09:49:11.973Z,3.44
2023-05-24T09:50:12.027Z,2.90
2023-05-24T09:51:12.148Z,2.72
2023-05-24T09:52:12.143Z,3.31
2023-05-24T09:53:12.171Z,3.25
2023-05-24T09:54:12.232Z,3.32
2023-05-24T09:55:12.268Z,2.94
2023-05-24T09:56:12.287Z,3.29
2023-05-24T09:57:12.352Z,2.83
2023-05-24T09:58:12.394Z,3.11
2023-05-24T09:59:12.462Z,3.00
2023-05-24T10:00:12.501Z,2.90
2023-05-24T10:01:12.652Z,3.37
2023-05-24T10:02:12.593Z,2.84
2023-05-24T10:03:13.188Z,3.14
2023-05-24T10:04:12.657Z,3.19
2023-05-24T10:05:12.654Z,3.46
2023-05-24T10:06:12.774Z,2.85
2023-05-24T10:07:12.720Z,3.27
2023-05-24T10:08:12.741Z,3.29
2023-05-24T10:09:12.776Z,2.87
2023-05-24T10:10:12.787Z,3.14
2023-05-24T10:11:12.791Z,3.26
2023-05-24T10:12:12.819Z,2.70
2023-05-24T10:13:12.842Z,3.06
2023-05-24T10:14:12.918Z,3.29
2023-05-24T10:15:13.022Z,3.67
2023-05-24T10:16:13.132Z,3.52
2023-05-24T10:17:13.319Z,3.07
2023-05-24T10:18:14.315Z,3.36
2023-05-24T10:19:13.349Z,3.19
2023-05-24T10:20:13.300Z,3.79
2023-05-24T10:21:13.398Z,3.62
2023-05-24T10:22:13.395Z,3.37
2023-05-24T10:23:13.357Z,3.44
2023-05-24T10:24:13.348Z,3.11
2023-05-24T10:25:13.362Z,3.55
2023-05-24T10:26:13.379Z,4.30
2023-05-24T10:27:13.378Z,3.01
2023-05-24T10:28:13.450Z,3.30
2023-05-24T10:29:13.371Z,3.33
2023-05-24T10:30:14.354Z,3.30
2023-05-24T10:31:13.459Z,3.31
2023-05-24T10:32:13.417Z,3.29
2023-05-24T10:33:13.483Z,3.88
2023-05-24T10:34:13.490Z,3.38
2023-05-24T10:35:13.556Z,3.34
2023-05-24T10:36:13.611Z,3.23
2023-05-24T10:37:13.653Z,3.92
2023-05-24T10:38:13.737Z,3.36
2023-05-24T10:39:13.844Z,3.63
2023-05-24T10:40:13.824Z,3.51
2023-05-24T10:41:13.883Z,3.85
2023-05-24T10:42:13.941Z,3.65
2023-05-24T10:43:14.007Z,4.12
2023-05-24T10:44:14.172Z,3.68
2023-05-24T10:45:14.110Z,4.10
2023-05-24T10:46:14.232Z,3.57
2023-05-24T10:47:14.245Z,4.15
2023-05-24T10:48:14.357Z,3.69
2023-05-24T10:49:14.336Z,3.77
2023-05-24T10:50:14.299Z,4.19
2023-05-24T10:51:14.376Z,4.12
2023-05-24T10:52:14.368Z,4.26
2023-05-24T10:53:14.464Z,4.56
2023-05-24T10:54:14.434Z,4.65
2023-05-24T10:55:14.443Z,4.32
2023-05-24T10:56:14.488Z,4.37
2023-05-24T10:57:14.557Z,4.31
2023-05-24T10:58:14.579Z,3.95
2023-05-24T10:59:14.641Z,3.99
2023-05-24T11:00:20.435Z,4.02
2023-05-24T11:01:15.713Z,3.71
2023-05-24T11:02:14.726Z,3.56
2023-05-24T11:03:14.770Z,4.26
2023-05-24T11:04:14.695Z,3.58
2023-05-24T11:05:14.697Z,4.00
2023-05-24T11:06:14.663Z,3.68
2023-05-24T11:07:14.685Z,3.81
2023-05-24T11:08:14.651Z,3.97
2023-05-24T11:09:14.679Z,4.00
2023-05-24T11:10:14.756Z,4.10
2023-05-24T11:11:23.444Z,3.53
2023-05-24T11:12:15.785Z,3.77
2023-05-24T11:13:14.775Z,3.86
2023-05-24T11:14:14.779Z,3.78
2023-05-24T11:15:14.777Z,3.67
2023-05-24T11:16:14.772Z,3.66
2023-05-24T11:17:14.745Z,4.01
2023-05-24T11:18:14.837Z,3.50
2023-05-24T11:19:14.730Z,3.97
2023-05-24T11:20:14.777Z,3.97
2023-05-24T11:21:14.696Z,3.51
2023-05-24T11:22:14.730Z,4.10
2023-05-24T11:23:16.406Z,3.53
2023-05-24T11:24:14.853Z,3.46
2023-05-24T11:25:14.901Z,3.70
2023-05-24T11:26:14.925Z,3.51
2023-05-24T11:27:15.048Z,3.57
2023-05-24T11:28:15.059Z,3.57
2023-05-24T11:29:15.107Z,3.38
2023-05-24T11:30:15.084Z,3.84
2023-05-24T11:31:15.207Z,3.72
2023-05-24T11:32:15.220Z,3.46
2023-05-24T11:33:15.313Z,3.79
2023-05-24T11:34:15.271Z,3.89
2023-05-24T11:35:15.311Z,4.24
2023-05-24T11:36:15.340Z,3.96
2023-05-24T11:37:17.639Z,3.42
2023-05-24T11:38:15.377Z,3.54
2023-05-24T11:39:15.360Z,3.33
2023-05-24T11:40:15.345Z,3.55
2023-05-24T11:41:15.350Z,3.62
2023-05-24T11:42:15.350Z,3.50
2023-05-24T11:43:16.813Z,4.28
2023-05-24T11:44:15.324Z,3.49
2023-05-24T11:45:15.333Z,3.97
2023-05-24T11:46:15.383Z,3.50
2023-05-24T11:47:15.322Z,3.61
2023-05-24T11:48:15.373Z,3.88
2023-05-24T11:49:15.319Z,3.61
2023-05-24T11:50:15.299Z,3.81
2023-05-24T11:51:15.283Z,3.29
2023-05-24T11:52:15.271Z,3.92
2023-05-24T11:53:15.295Z,3.46
2023-05-24T11:54:15.301Z,3.42
2023-05-24T11:55:16.789Z,3.29
2023-05-24T11:56:15.262Z,3.18
2023-05-24T11:57:15.260Z,2.93
2023-05-24T11:58:15.248Z,3.63
2023-05-24T11:59:15.364Z,3.29
2023-05-24T12:00:15.262Z,3.25
2023-05-24T12:01:15.264Z,4.07
2023-05-24T12:02:15.255Z,3.67
2023-05-24T12:03:15.430Z,3.42
2023-05-24T12:04:15.385Z,3.90
2023-05-24T12:05:15.207Z,3.37
2023-05-24T12:06:15.179Z,3.67
2023-05-24T12:07:15.221Z,3.84
2023-05-24T12:08:15.209Z,4.13
2023-05-24T12:09:15.209Z,3.73
2023-05-24T12:10:15.270Z,3.90
2023-05-24T12:11:15.350Z,3.54
2023-05-24T12:12:15.371Z,3.81
2023-05-24T12:13:15.342Z,3.30
2023-05-24T12:14:15.315Z,4.13
2023-05-24T12:15:15.351Z,3.93
2023-05-24T12:16:15.463Z,3.42
2023-05-24T12:17:15.398Z,3.25
2023-05-24T12:18:15.407Z,3.81
2023-05-24T12:20:15.429Z,3.50
2023-05-24T12:21:15.357Z,3.14
2023-05-24T12:22:15.345Z,2.97
2023-05-24T12:23:15.403Z,4.29
2023-05-24T12:24:16.358Z,3.46
2023-05-24T12:25:15.371Z,3.25
2023-05-24T12:26:15.382Z,3.69
2023-05-24T12:27:15.372Z,2.84
2023-05-24T12:28:15.381Z,3.33
2023-05-24T12:29:15.449Z,3.41
2023-05-24T12:30:15.541Z,3.52
2023-05-24T12:31:15.672Z,2.98
2023-05-24T12:32:15.911Z,3.44
2023-05-24T12:33:15.634Z,3.69
2023-05-24T12:34:15.749Z,3.17
2023-05-24T12:35:15.827Z,2.96
2023-05-24T12:36:15.824Z,3.31
2023-05-24T12:37:15.908Z,3.18
2023-05-24T12:38:15.828Z,3.59
2023-05-24T12:39:15.825Z,3.42
2023-05-24T12:40:15.820Z,3.17
2023-05-24T12:41:15.883Z,3.43
2023-05-24T12:42:16.002Z,3.44
2023-05-24T12:43:16.012Z,3.73
2023-05-24T12:44:16.004Z,3.24
2023-05-24T12:45:16.052Z,3.48
2023-05-24T12:46:16.015Z,2.86
2023-05-24T12:47:16.163Z,3.26
2023-05-24T12:48:16.127Z,3.78
2023-05-24T12:49:16.185Z,3.06
2023-05-24T12:50:16.222Z,3.10
2023-05-24T12:51:16.227Z,3.04
2023-05-24T12:52:16.250Z,3.53
2023-05-24T12:53:16.253Z,3.84
2023-05-24T12:54:16.256Z,3.27
2023-05-24T12:55:16.378Z,3.05
2023-05-24T12:56:16.355Z,3.39
2023-05-24T12:57:16.385Z,3.80
2023-05-24T12:58:16.416Z,3.81
2023-05-24T12:59:16.456Z,3.60
2023-05-24T13:00:16.483Z,3.32
2023-05-24T13:01:16.490Z,3.03
2023-05-24T13:02:16.476Z,3.89
2023-05-24T13:03:16.661Z,3.24
2023-05-24T13:04:16.515Z,3.42
2023-05-24T13:05:16.591Z,3.21
2023-05-24T13:06:16.528Z,4.03
2023-05-24T13:07:16.578Z,3.38
2023-05-24T13:08:16.557Z,3.32
2023-05-24T13:09:16.557Z,3.26
2023-05-24T13:10:16.596Z,3.15
2023-05-24T13:11:16.612Z,3.34
2023-05-24T13:12:16.632Z,3.48
2023-05-24T13:13:16.646Z,3.78
2023-05-24T13:14:16.985Z,2.63
2023-05-24T13:15:16.705Z,3.17
2023-05-24T13:16:16.719Z,3.10
2023-05-24T13:17:16.710Z,3.46
2023-05-24T13:18:16.694Z,3.77
2023-05-24T13:19:16.716Z,3.60
2023-05-24T13:20:16.815Z,3.15
2023-05-24T13:21:16.779Z,3.52